x

Shelikof Strait, Ak (46077) Wave Buoy

11:50am - Sat 22nd Jul 2017 All times are AKDT. -8 hours from GMT.

  • Sig Wave height 1.0ft
  • Swell Direction
  • Peak Period 7s
  • Average Period 3s
  • Wind
    16mph, 18mph gusts
  • Sea Temp 52°f
  • Air Temp 54°f
  • Sea Pressure 1014.8mb
  • Shelikof  Strait, Ak
  • Shelikof  Strait, Ak

More Historic Weather Station data

Upgrade to MSW Pro to gain access to the past 30 days of data for over 8000 Wavebouys and Weather Stations around the globe.

Join Pro

Comparision Forecast

View Surf forecast
   
Sat 07/22 11:50am 1ft 7s 3s 16 18 mph 1014.8mb 52f 54f
10:50am 1ft 8s 3s 9 11 mph 1015.1mb 52f 53f
9:50am 1.3ft 3s 3s 11 13 mph 1015.1mb 51f 52f
8:50am 1ft 3s 3s 16 18 mph 1014.8mb 50f 51f
7:50am 1ft 8s 4s 13 16 mph 1014.4mb 51f 51f
6:50am 0.7ft  -  4s 11 11 mph 1014.1mb 51f 51f
5:50am 0.7ft  -  5s 9 11 mph 1014.2mb 51f 51f
4:50am 0.7ft  -  5s 11 13 mph 1013.9mb 51f 51f
3:50am 0.7ft  -  5s 7 7 mph 1013.9mb 51f 51f
2:50am 0.7ft  -  4s 4 4 mph 1014mb 51f 51f
1:50am 0.7ft  -  4s 4 7 mph 1014.2mb 51f 52f
12:50am 0.7ft  -  5s 2 2 mph 1014.1mb 51f 53f
Fri 07/21 11:50pm 0.7ft  -  4s 2 2 mph 1014.4mb 51f 52f
10:50pm 1ft 8s 4s 4 7 mph 1014.3mb 51f 52f
9:50pm 1ft 8s 4s 7 7 mph 1014.1mb 51f 53f
8:50pm 1.3ft 7s 4s 7 7 mph 1014.2mb 51f 53f
7:50pm 1.6ft 8s 4s 7 9 mph 1014.3mb 51f 53f
6:50pm 2ft 7s 4s 11 13 mph 1014.3mb 51f 53f
5:50pm 2.5ft 4s 4s 13 16 mph 1014.2mb 51f 53f
4:50pm 2ft 4s 4s 16 18 mph 1014.2mb 51f 53f
3:50pm 2.5ft 4s 4s 16 18 mph 1014.5mb 51f 53f
2:50pm 2.5ft 4s 4s 16 18 mph 1014.6mb 50f 53f
1:50pm 2.5ft 4s 4s 18 20 mph 1014.6mb 50f 53f
12:50pm 3.5ft 5s 4s 18 22 mph 1014.4mb 50f 53f
11:50am 3.5ft 5s 4s 20 22 mph 1014.4mb 50f 52f
10:50am 4ft 5s 4s 18 20 mph 1014.4mb 49f 52f
9:50am 4ft 5s 4s 18 20 mph 1014.1mb 49f 51f
8:50am 4ft 5s 4s 20 27 mph 1013.6mb 48f 52f
7:50am 4.5ft 5s 4s 20 22 mph 1013.2mb 49f 51f
6:50am 4.5ft 5s 4s 22 27 mph 1012.6mb 49f 52f
5:50am 4.5ft 5s 4s 22 29 mph 1012.2mb 49f 51f
4:50am 5ft 6s 5s 22 27 mph 1011.9mb 49f 51f
3:50am 5ft 6s 5s 25 27 mph 1011.4mb 49f 52f
2:50am 6ft 6s 5s 27 34 mph 1010.8mb 48f 52f
1:50am 6ft 6s 5s 25 27 mph 1010.9mb 49f 52f
12:50am 7ft 6s 5s 25 29 mph 1010.5mb 49f 52f
Thu 07/20 11:50pm 7ft 7s 5s 27 34 mph 1010.3mb 49f 52f
10:50pm 7.5ft 7s 6s 31 38 mph 1009.9mb 49f 52f
9:50pm 7.5ft 7s 5s 29 34 mph 1009.5mb 50f 52f
8:50pm 7.5ft 6s 5s 29 34 mph 1009.2mb 50f 52f
7:50pm 7.5ft 7s 5s 29 36 mph 1008.8mb 50f 52f
6:50pm 7.5ft 7s 5s 31 36 mph 1008.4mb 50f 52f
5:50pm 7.5ft 6s 5s 29 36 mph 1008.2mb 50f 52f
4:50pm 8ft 7s 5s 31 40 mph 1007.8mb 51f 52f
3:50pm 8ft 7s 5s 31 36 mph 1007.3mb 51f 52f
2:50pm 8.5ft 7s 6s 29 36 mph 1006.8mb 51f 52f
1:50pm 8.5ft 7s 6s 31 38 mph 1006.4mb 51f 52f
12:50pm 9ft 7s 6s 34 40 mph 1005.9mb 52f 52f
11:50am 8.5ft 7s 6s 31 38 mph 1005.9mb 52f 52f
10:50am 8ft 7s 5s 31 40 mph 1005.5mb 52f 52f
9:50am 7.5ft 7s 5s 31 40 mph 1005.3mb 53f 52f
8:50am 6.5ft 6s 5s 34 40 mph 1004.9mb 53f 52f
7:50am 6ft 6s 5s 27 34 mph 1005.2mb 53f 52f
6:50am 6ft 6s 5s 27 31 mph 1005.4mb 53f 52f
5:50am 6.5ft 6s 5s 29 34 mph 1005.6mb 53f 52f
4:50am 6ft 6s 5s 29 36 mph 1005.5mb 53f 52f
3:50am 6ft 6s 5s 29 36 mph 1005.2mb 53f 52f
2:50am 4.5ft 5s 4s 27 31 mph 1005.1mb 53f 53f
1:50am 4ft 5s 4s 18 22 mph 1005.1mb 54f 53f
12:50am 3.5ft 5s 4s 22 25 mph 1004.4mb 54f 53f
Wed 07/19 11:50pm 2.5ft 5s 4s 22 25 mph 1004mb 54f 53f
10:50pm 2.5ft 4s 4s 20 22 mph 1003.8mb 54f 53f
9:50pm 1.6ft 6s 4s 16 18 mph 1003.6mb 54f 53f
8:50pm 1.3ft 6s 4s 11 13 mph 1003.6mb 54f 52f
7:50pm 1.3ft 5s 5s 7 9 mph 1003.6mb 54f 51f
6:50pm 1.3ft 6s 5s 7 7 mph 1004mb 54f 50f
5:50pm 1.3ft 5s 4s 2 2 mph 1004.3mb 54f 50f
4:50pm 1.3ft 6s 4s 2 2 mph 1004.5mb 54f 52f
3:50pm 1.3ft 6s 4s 2 4 mph 1004.4mb 54f 52f
2:50pm 1.3ft 6s 4s  -  2 mph 1004.4mb 53f 52f
1:50pm 1.3ft 6s 5s 4 4 mph 1004.3mb 53f 52f
12:50pm 1.3ft 6s 4s 4 7 mph 1004.2mb 53f 52f
11:50am 1.6ft 6s 4s 7 7 mph 1004.3mb 53f 52f
10:50am 1.6ft 6s 4s 7 9 mph 1004.3mb 54f 52f
9:50am 1.6ft 5s 4s 9 11 mph 1004.3mb 54f 52f
8:50am 1.6ft 6s 4s 11 11 mph 1004.2mb 54f 52f
7:50am 2ft 6s 4s 9 9 mph 1004.2mb 54f 52f
6:50am 2ft 6s 4s 9 11 mph 1004.3mb 54f 53f
5:50am 2.5ft 6s 4s 9 9 mph 1004.7mb 55f 53f
4:50am 2.5ft 6s 5s 9 11 mph 1005mb 55f 53f
3:50am 2.5ft 6s 4s 4 7 mph 1005.1mb 55f 53f
2:50am 2.5ft 6s 5s 4 7 mph 1005.3mb 55f 53f
1:50am 2ft 6s 5s 7 7 mph 1005.4mb 54f 52f
12:50am 1.6ft 6s 5s 2 4 mph 1005.5mb 54f 52f
Tue 07/18 11:50pm 1.3ft 6s 5s 2 2 mph 1005.8mb 53f 52f
10:50pm 1.3ft 6s 4s 2 2 mph 1005.7mb 53f 52f
9:50pm 1.3ft 6s 4s 2 2 mph 1005.7mb 53f 52f